Time;durP1;ratioP1;P1;durP2;ratioP2;P2;SDS_P1;SDS_P2;PMS_P1;PMS_P2;Temp;Humidity;BMP_temperature;BMP_pressure;BME280_temperature;BME280_humidity;BME280_pressure;Samples;Min_cycle;Max_cycle;Signal;HPM_P1;HPM_P2
2022/03/17 00:02:16;;;;;;;2.25;1.85;;;;;;;-148.93;100.00;62180.91;20770318;28;20088;-79
2022/03/17 00:12:18;;;;;;;2.50;1.95;;;;;;;-148.93;100.00;62180.91;20755850;28;20422;-79
2022/03/17 00:22:20;;;;;;;2.95;1.77;;;;;;;-148.93;100.00;62180.91;20778464;28;20049;-79
2022/03/17 00:32:26;;;;;;;2.67;2.00;;;;;;;-148.93;100.00;62180.91;20746681;28;20141;-79
2022/03/17 00:42:28;;;;;;;4.10;2.00;;;;;;;-148.93;100.00;62180.91;20787374;28;20052;-79
2022/03/17 00:52:30;;;;;;;3.22;1.73;;;;;;;-148.93;100.00;62180.91;20777395;28;20056;-79
2022/03/17 01:02:32;;;;;;;2.97;1.98;;;;;;;-148.93;100.00;62180.91;20765554;28;20073;-79
2022/03/17 01:12:34;;;;;;;2.83;2.40;;;;;;;-148.93;100.00;62180.91;20693641;28;20049;-79
2022/03/17 01:22:36;;;;;;;2.75;2.08;;;;;;;-148.93;100.00;62180.91;20742965;28;20116;-79
2022/03/17 01:32:38;;;;;;;2.55;2.10;;;;;;;-148.93;100.00;62180.91;21293834;22;20137;-77
2022/03/17 01:42:40;;;;;;;3.28;2.13;;;;;;;-148.93;100.00;62180.91;20872052;28;20057;-77
2022/03/17 01:52:43;;;;;;;3.15;2.08;;;;;;;-148.93;100.00;62180.91;20899642;28;20493;-77
2022/03/17 02:02:49;;;;;;;3.17;2.38;;;;;;;-148.93;100.00;62180.91;20902946;28;20106;-76
2022/03/17 02:13:10;;;;;;;2.78;2.45;;;;;;;-148.93;100.00;62180.91;20894966;28;20421;-76
2022/03/17 02:33:31;;;;;;;3.47;2.65;;;;;;;-148.93;100.00;62180.91;20882785;28;20148;-77
2022/03/17 02:43:33;;;;;;;3.25;2.45;;;;;;;-148.93;100.00;62180.91;20894912;28;20041;-77
2022/03/17 02:53:35;;;;;;;3.05;2.45;;;;;;;-148.93;100.00;62180.91;20881326;28;20541;-77
2022/03/17 03:03:37;;;;;;;3.85;2.60;;;;;;;-148.93;100.00;62180.91;20877520;28;20501;-76
2022/03/17 03:13:39;;;;;;;3.30;2.55;;;;;;;-148.93;100.00;62180.91;20898949;28;20093;-76
2022/03/17 03:23:41;;;;;;;2.65;2.20;;;;;;;-148.93;100.00;62180.91;20910048;28;20045;-74
2022/03/17 03:33:42;;;;;;;3.00;2.55;;;;;;;-148.93;100.00;62180.91;20915400;28;20056;-74
2022/03/17 03:43:44;;;;;;;3.58;2.50;;;;;;;-148.93;100.00;62180.91;20913151;28;20422;-74
2022/03/17 04:04:07;;;;;;;4.18;2.50;;;;;;;-148.93;100.00;62180.91;20895215;28;20049;-76
2022/03/17 04:14:10;;;;;;;2.88;2.17;;;;;;;-148.93;100.00;62180.91;20894548;28;20436;-77
2022/03/17 04:24:12;;;;;;;3.05;2.58;;;;;;;-148.93;100.00;62180.91;20910500;28;20049;-77
2022/03/17 04:34:14;;;;;;;3.17;2.20;;;;;;;-148.93;100.00;62180.91;20902974;28;20051;-76
2022/03/17 04:44:16;;;;;;;3.22;2.50;;;;;;;-148.93;100.00;62180.91;20909381;28;20403;-76
2022/03/17 04:54:18;;;;;;;3.00;2.60;;;;;;;-148.93;100.00;62180.91;20882819;28;20045;-76
2022/03/17 05:04:19;;;;;;;3.22;2.55;;;;;;;-148.93;100.00;62180.91;20898773;28;20546;-78
2022/03/17 05:14:21;;;;;;;3.03;2.60;;;;;;;-148.93;100.00;62180.91;20905849;28;20060;-77
2022/03/17 05:24:23;;;;;;;3.05;2.40;;;;;;;-148.93;100.00;62180.91;20903394;28;20087;-77
2022/03/17 05:34:25;;;;;;;4.07;2.58;;;;;;;-148.93;100.00;62180.91;20887623;28;20476;-78
2022/03/17 05:44:27;;;;;;;3.10;2.63;;;;;;;-148.93;100.00;62180.91;20882226;28;20111;-78
2022/03/17 05:54:28;;;;;;;3.97;2.90;;;;;;;-148.93;100.00;62180.91;20888587;28;20045;-78
2022/03/17 06:04:30;;;;;;;2.95;2.47;;;;;;;-148.93;100.00;62180.91;20888698;28;20059;-78
2022/03/17 06:14:32;;;;;;;2.63;2.35;;;;;;;-148.93;100.00;62180.91;20891424;28;20090;-77
2022/03/17 06:24:34;;;;;;;2.28;2.00;;;;;;;-148.93;100.00;62180.91;20890538;28;20056;-77
2022/03/17 06:34:36;;;;;;;3.13;2.00;;;;;;;-148.93;100.00;62180.91;20900111;28;20049;-77
2022/03/17 06:44:39;;;;;;;1.98;1.77;;;;;;;-148.93;100.00;62180.91;20900115;28;20132;-77
2022/03/17 06:54:41;;;;;;;2.05;1.85;;;;;;;-148.93;100.00;62180.91;20903878;28;20128;-76
2022/03/17 07:04:43;;;;;;;2.13;1.60;;;;;;;-148.93;100.00;62180.91;20877627;28;20045;-77
2022/03/17 07:14:45;;;;;;;2.03;1.70;;;;;;;-148.93;100.00;62180.91;20905425;28;20063;-76
2022/03/17 07:24:47;;;;;;;1.45;1.10;;;;;;;-148.93;100.00;62180.91;20904939;28;20075;-75
2022/03/17 07:34:49;;;;;;;1.40;1.20;;;;;;;-148.93;100.00;62180.91;20886752;28;20061;-76
2022/03/17 07:44:51;;;;;;;1.27;1.00;;;;;;;-148.93;100.00;62180.91;20886637;28;20052;-76
2022/03/17 07:55:13;;;;;;;1.92;1.00;;;;;;;-148.93;100.00;62180.91;20902469;28;20076;-77
2022/03/17 08:05:15;;;;;;;2.30;0.90;;;;;;;-148.93;100.00;62180.91;20906645;28;20075;-77
2022/03/17 08:15:17;;;;;;;1.92;0.98;;;;;;;-148.93;100.00;62180.91;20917287;28;20510;-76
2022/03/17 08:25:18;;;;;;;1.13;1.02;;;;;;;-148.93;100.00;62180.91;20917623;28;20052;-76
2022/03/17 08:35:20;;;;;;;2.05;1.05;;;;;;;-148.93;100.00;62180.91;20916823;28;20059;-76
2022/03/17 08:55:44;;;;;;;2.75;0.98;;;;;;;-148.93;100.00;62180.91;20915568;28;20045;-76
2022/03/17 09:05:46;;;;;;;1.50;1.00;;;;;;;-148.93;100.00;62180.91;20914374;28;20083;-76
2022/03/17 09:15:49;;;;;;;2.65;1.25;;;;;;;-148.93;100.00;62180.91;20912618;28;20147;-76
2022/03/17 09:25:51;;;;;;;1.50;1.13;;;;;;;-148.93;100.00;62180.91;20895269;28;20399;-76
2022/03/17 09:35:54;;;;;;;4.22;1.92;;;;;;;-148.93;100.00;62180.91;20911586;28;20059;-76
2022/03/17 09:45:58;;;;;;;1.45;0.75;;;;;;;-148.93;100.00;62180.91;20893688;28;20051;-76
2022/03/17 09:56:01;;;;;;;2.43;0.97;;;;;;;-148.93;100.00;62180.91;20909070;28;20083;-76
2022/03/17 10:06:06;;;;;;;2.15;1.08;;;;;;;-148.93;100.00;62180.91;20890795;28;20051;-75
2022/03/17 10:16:10;;;;;;;2.50;1.25;;;;;;;-148.93;100.00;62180.91;20909056;28;20111;-77
2022/03/17 10:26:30;;;;;;;2.25;1.10;;;;;;;-148.93;100.00;62180.91;20907940;28;20497;-76
2022/03/17 10:36:32;;;;;;;1.48;0.90;;;;;;;-148.93;100.00;62180.91;20901904;28;20071;-76
2022/03/17 10:46:34;;;;;;;2.80;0.82;;;;;;;-148.93;100.00;62180.91;20906907;28;20053;-76
2022/03/17 10:56:38;;;;;;;2.03;0.90;;;;;;;-148.93;100.00;62180.91;20906222;28;20053;-75
2022/03/17 11:06:40;;;;;;;2.28;0.88;;;;;;;-148.93;100.00;62180.91;20901863;28;20049;-75
2022/03/17 11:16:50;;;;;;;1.65;0.93;;;;;;;-148.93;100.00;62180.91;20905415;28;20088;-75
2022/03/17 11:27:15;;;;;;;2.30;0.90;;;;;;;-148.93;100.00;62180.91;20903019;28;20169;-76
2022/03/17 11:37:19;;;;;;;1.63;0.80;;;;;;;-148.93;100.00;62180.91;20898842;28;20057;-76
2022/03/17 11:47:28;;;;;;;1.90;0.70;;;;;;;-148.93;100.00;62180.91;20919530;28;20084;-76
2022/03/17 11:58:19;;;;;;;1.65;0.80;;;;;;;-148.93;100.00;62180.91;20917229;28;20052;-75
2022/03/17 12:08:21;;;;;;;2.00;0.90;;;;;;;-148.93;100.00;62180.91;20918805;28;20049;-75
2022/03/17 12:18:23;;;;;;;2.17;0.90;;;;;;;-148.93;100.00;62180.91;20918178;28;20497;-75
2022/03/17 12:28:24;;;;;;;1.60;0.68;;;;;;;-148.93;100.00;62180.91;20911283;28;20497;-76
2022/03/17 12:38:26;;;;;;;2.80;0.73;;;;;;;-148.93;100.00;62180.91;20910710;28;20433;-76
2022/03/17 12:48:30;;;;;;;2.13;0.75;;;;;;;-148.93;100.00;62180.91;20910246;28;20493;-75
2022/03/17 12:58:41;;;;;;;2.08;0.63;;;;;;;-148.93;100.00;62180.91;20916671;28;20045;-75
2022/03/17 13:08:44;;;;;;;3.25;0.85;;;;;;;-148.93;100.00;62180.91;20914353;28;20495;-76
2022/03/17 13:18:50;;;;;;;2.55;1.00;;;;;;;-148.93;100.00;62180.91;20913454;28;20049;-75
2022/03/17 13:29:00;;;;;;;;;;;;;;;-148.93;100.00;62180.91;20913123;28;20124;-76
2022/03/17 13:39:09;;;;;;;2.55;0.88;;;;;;;-148.93;100.00;62180.91;20887004;28;19925;-75
2022/03/17 13:49:14;;;;;;;2.50;0.60;;;;;;;-148.93;100.00;62180.91;20902976;28;20083;-75
2022/03/17 13:59:16;;;;;;;1.40;0.55;;;;;;;-148.93;100.00;62180.91;20909543;28;20056;-76
2022/03/17 14:09:19;;;;;;;2.08;0.70;;;;;;;-148.93;100.00;62180.91;20909451;28;20045;-76
2022/03/17 14:19:21;;;;;;;1.15;0.60;;;;;;;-148.93;100.00;62180.91;20908795;28;20078;-76
2022/03/17 14:29:23;;;;;;;1.67;0.50;;;;;;;-148.93;100.00;62180.91;20907961;28;20395;-76
2022/03/17 14:39:25;;;;;;;2.88;0.80;;;;;;;-148.93;100.00;62180.91;20889742;28;20140;-75
2022/03/17 14:49:27;;;;;;;1.98;0.75;;;;;;;-148.93;100.00;62180.91;20889057;28;20064;-76
2022/03/17 14:59:29;;;;;;;1.30;0.60;;;;;;;-148.93;100.00;62180.91;20888392;28;20495;-76
2022/03/17 15:09:32;;;;;;;2.65;0.68;;;;;;;-148.93;100.00;62180.91;20905666;28;20055;-76
2022/03/17 15:19:35;;;;;;;5.47;0.80;;;;;;;-148.93;100.00;62180.91;20904264;28;20083;-77
2022/03/17 15:39:57;;;;;;;1.35;0.60;;;;;;;-148.93;100.00;62180.91;20903684;28;20052;-74
2022/03/17 15:49:59;;;;;;;1.73;0.80;;;;;;;-148.93;100.00;62180.91;20902906;28;20041;-75
2022/03/17 16:00:01;;;;;;;2.45;0.80;;;;;;;-148.93;100.00;62180.91;20877994;28;20053;-75
2022/03/17 16:20:34;;;;;;;2.13;0.52;;;;;;;-148.93;100.00;62180.91;20903258;28;20057;-76
2022/03/17 16:30:36;;;;;;;2.30;0.60;;;;;;;-148.93;100.00;62180.91;20912328;28;20048;-75
2022/03/17 16:40:38;;;;;;;4.72;0.63;;;;;;;-148.93;100.00;62180.91;20915268;28;20152;-77
2022/03/17 16:50:40;;;;;;;1.63;0.55;;;;;;;-148.93;100.00;62180.91;20916057;28;20102;-76
2022/03/17 17:00:42;;;;;;;1.85;0.52;;;;;;;-148.93;100.00;62180.91;20915095;28;20057;-76
2022/03/17 17:10:45;;;;;;;2.25;0.57;;;;;;;-148.93;100.00;62180.91;20896471;28;20445;-77
2022/03/17 17:20:47;;;;;;;1.45;0.50;;;;;;;-148.93;100.00;62180.91;20913527;28;20048;-76
2022/03/17 17:30:51;;;;;;;0.95;0.60;;;;;;;-148.93;100.00;62180.91;20912747;28;20047;-76
2022/03/17 17:40:54;;;;;;;1.92;0.60;;;;;;;-148.93;100.00;62180.91;20893710;28;20426;-76
2022/03/17 17:50:56;;;;;;;1.98;0.50;;;;;;;-148.93;100.00;62180.91;20893831;28;20049;-76
2022/03/17 18:00:58;;;;;;;0.50;0.40;;;;;;;-148.93;100.00;62180.91;20910381;28;20047;-76
2022/03/17 18:11:00;;;;;;;1.10;0.40;;;;;;;-148.93;100.00;62180.91;20909439;28;20068;-77
2022/03/17 18:21:04;;;;;;;1.83;0.45;;;;;;;-148.93;100.00;62180.91;20904565;28;20049;-77
2022/03/17 18:31:06;;;;;;;1.65;0.40;;;;;;;-148.93;100.00;62180.91;20904058;28;20280;-76
2022/03/17 18:41:08;;;;;;;1.23;0.50;;;;;;;-148.93;100.00;62180.91;20897415;28;20655;-77
2022/03/17 18:51:10;;;;;;;1.25;0.40;;;;;;;-148.93;100.00;62180.91;20898651;28;20048;-77
2022/03/17 19:01:12;;;;;;;1.38;0.35;;;;;;;-148.93;100.00;62180.91;20882174;28;20928;-76
2022/03/17 19:11:14;;;;;;;1.13;0.40;;;;;;;-148.93;100.00;62180.91;20882545;28;20107;-76
2022/03/17 19:21:16;;;;;;;2.00;0.60;;;;;;;-148.93;100.00;62180.91;20899789;28;20052;-75
2022/03/17 19:31:18;;;;;;;0.85;0.40;;;;;;;-148.93;100.00;62180.91;20819595;28;20056;-75
2022/03/17 19:41:27;;;;;;;1.98;0.60;;;;;;;-148.93;100.00;62180.91;20894995;28;20061;-76
2022/03/17 19:51:32;;;;;;;1.10;0.60;;;;;;;-148.93;100.00;62180.91;20896907;28;20057;-75
2022/03/17 20:01:35;;;;;;;1.00;0.30;;;;;;;-148.93;100.00;62180.91;20893510;28;20132;-76
2022/03/17 20:22:17;;;;;;;2.00;0.60;;;;;;;-148.93;100.00;62180.91;20911354;28;20056;-75
2022/03/17 20:32:19;;;;;;;1.73;0.40;;;;;;;-148.93;100.00;62180.91;20890206;28;20040;-75
2022/03/17 20:42:21;;;;;;;1.65;0.50;;;;;;;-148.93;100.00;62180.91;20910169;28;20089;-75
2022/03/17 20:52:23;;;;;;;2.00;0.60;;;;;;;-148.93;100.00;62180.91;20909954;28;20696;-76
2022/03/17 21:02:26;;;;;;;2.60;0.50;;;;;;;-148.93;100.00;62180.91;20909568;28;20049;-75
2022/03/17 21:12:28;;;;;;;0.50;0.40;;;;;;;-148.93;100.00;62180.91;20909752;28;20037;-75
2022/03/17 21:22:30;;;;;;;1.35;0.50;;;;;;;-148.93;100.00;62180.91;20909965;28;20052;-75
2022/03/17 21:32:32;;;;;;;2.30;0.55;;;;;;;-148.93;100.00;62180.91;20908411;28;20053;-76
2022/03/17 21:42:34;;;;;;;1.10;0.50;;;;;;;-148.93;100.00;62180.91;20889260;28;20063;-75
2022/03/17 21:52:37;;;;;;;0.88;0.43;;;;;;;-148.93;100.00;62180.91;20904133;28;20067;-76
2022/03/17 22:02:38;;;;;;;1.08;0.50;;;;;;;-148.93;100.00;62180.91;20903204;28;20041;-76
2022/03/17 22:12:41;;;;;;;1.48;0.80;;;;;;;-148.93;100.00;62180.91;20892247;28;20045;-76
2022/03/17 22:22:43;;;;;;;1.70;1.10;;;;;;;-148.93;100.00;62180.91;20896836;28;20562;-75
2022/03/17 22:32:45;;;;;;;1.90;1.00;;;;;;;-148.93;100.00;62180.91;20901834;28;20045;-75
2022/03/17 22:42:46;;;;;;;2.38;1.23;;;;;;;-148.93;100.00;62180.91;20900364;28;20045;-76
2022/03/17 22:52:48;;;;;;;3.05;1.10;;;;;;;-148.93;100.00;62180.91;20900043;28;20497;-76
2022/03/17 23:02:50;;;;;;;3.08;1.17;;;;;;;-148.93;100.00;62180.91;20899535;28;20040;-76
2022/03/17 23:12:53;;;;;;;3.30;1.50;;;;;;;-148.93;100.00;62180.91;20898814;28;20049;-75
2022/03/17 23:22:55;;;;;;;2.53;1.35;;;;;;;-148.93;100.00;62180.91;20901927;28;20401;-75
2022/03/17 23:33:00;;;;;;;2.92;1.42;;;;;;;-148.93;100.00;62180.91;20882566;28;20063;-75
2022/03/17 23:43:02;;;;;;;1.63;1.23;;;;;;;-148.93;100.00;62180.91;20909811;28;20140;-76
2022/03/17 23:53:04;;;;;;;3.90;1.40;;;;;;;-148.93;100.00;62180.91;20913794;28;20072;-75
